Time;durP1;ratioP1;P1;durP2;ratioP2;P2;SDS_P1;SDS_P2;PMS_P1;PMS_P2;Temp;Humidity;BMP_temperature;BMP_pressure;BME280_temperature;BME280_humidity;BME280_pressure;Samples;Min_cycle;Max_cycle;Signal;HPM_P1;HPM_P2
2021/11/13 00:00:19;;;;;;;0.93;0.43;;;;;16.80;101074.00;;;;5091232;28;20503;-75
2021/11/13 00:02:49;;;;;;;0.90;0.20;;;;;16.90;101045.00;;;;5099162;28;20055;-73
2021/11/13 00:05:20;;;;;;;0.13;0.10;;;;;16.80;101092.00;;;;5106925;28;20043;-74
2021/11/13 00:07:51;;;;;;;0.00;0.00;;;;;16.80;101088.00;;;;5107843;28;20118;-73
2021/11/13 00:10:26;;;;;;;0.00;0.00;;;;;16.80;101068.00;;;;5097831;28;20040;-74
2021/11/13 00:13:00;;;;;;;0.10;0.10;;;;;16.70;101081.00;;;;5082544;28;20605;-75
2021/11/13 00:15:30;;;;;;;0.00;0.00;;;;;16.60;101058.00;;;;5079014;28;20044;-74
2021/11/13 00:18:00;;;;;;;0.00;0.00;;;;;16.60;101047.00;;;;5102778;28;20035;-73
2021/11/13 00:20:30;;;;;;;0.00;0.00;;;;;16.60;101073.00;;;;5098550;28;20044;-72
2021/11/13 00:22:59;;;;;;;0.00;0.00;;;;;16.50;101067.00;;;;5098246;28;20050;-71
2021/11/13 00:25:29;;;;;;;0.00;0.00;;;;;16.50;101065.00;;;;5097342;28;20051;-71
2021/11/13 00:27:59;;;;;;;0.00;0.00;;;;;16.40;101091.00;;;;5096727;28;20036;-71
2021/11/13 00:30:29;;;;;;;0.00;0.00;;;;;16.40;101066.00;;;;5097646;28;20624;-73
2021/11/13 00:32:58;;;;;;;0.00;0.00;;;;;16.30;101089.00;;;;5099222;28;20035;-72
2021/11/13 00:35:28;;;;;;;0.00;0.00;;;;;16.30;101080.00;;;;5097289;28;20495;-72
2021/11/13 00:37:57;;;;;;;0.10;0.10;;;;;16.40;101090.00;;;;5097148;28;20051;-72
2021/11/13 00:40:27;;;;;;;0.00;0.00;;;;;16.30;101091.00;;;;5097869;28;20483;-71
2021/11/13 00:42:56;;;;;;;0.00;0.00;;;;;16.20;101073.00;;;;5098841;28;20422;-74
2021/11/13 00:45:26;;;;;;;0.00;0.00;;;;;16.20;101071.00;;;;5098099;28;20138;-72
2021/11/13 00:47:56;;;;;;;0.20;0.10;;;;;16.30;101073.00;;;;5097850;28;20134;-72
2021/11/13 00:50:25;;;;;;;0.15;0.08;;;;;16.30;101087.00;;;;5093369;28;20754;-71
2021/11/13 00:52:55;;;;;;;2.08;0.47;;;;;16.30;101066.00;;;;5087471;28;20131;-72
2021/11/13 00:55:25;;;;;;;0.00;0.00;;;;;16.20;101086.00;;;;5088093;28;20043;-71
2021/11/13 00:57:57;;;;;;;0.00;0.00;;;;;16.10;101072.00;;;;5088278;28;20043;-72
2021/11/13 01:00:27;;;;;;;0.13;0.13;;;;;16.20;101083.00;;;;5086582;28;20048;-71
2021/11/13 01:02:56;;;;;;;0.00;0.00;;;;;16.10;101084.00;;;;5085529;28;20059;-72
2021/11/13 01:05:27;;;;;;;0.00;0.00;;;;;16.00;101087.00;;;;5085978;28;20054;-72
2021/11/13 01:07:57;;;;;;;1.45;0.52;;;;;15.90;101085.00;;;;5087309;28;20040;-71
2021/11/13 01:10:26;;;;;;;0.05;0.05;;;;;15.90;101081.00;;;;5086918;28;20076;-71
2021/11/13 01:12:56;;;;;;;0.00;0.00;;;;;15.90;101064.00;;;;5087494;28;20052;-71
2021/11/13 01:15:25;;;;;;;0.08;0.00;;;;;15.90;101076.00;;;;5087572;28;20054;-73
2021/11/13 01:17:57;;;;;;;0.00;0.00;;;;;15.90;101081.00;;;;5087584;28;20052;-73
2021/11/13 01:20:29;;;;;;;0.00;0.00;;;;;15.90;101053.00;;;;5086881;28;20040;-72
2021/11/13 01:22:58;;;;;;;;;;;;;15.80;101071.00;;;;5088393;28;20087;-72
2021/11/13 01:25:29;;;;;;;0.73;0.47;;;;;15.70;101084.00;;;;5086953;28;19924;-73
2021/11/13 01:27:59;;;;;;;0.00;0.00;;;;;15.80;101077.00;;;;5070008;28;20416;-74
2021/11/13 01:30:28;;;;;;;0.22;0.10;;;;;15.80;101062.00;;;;5086808;28;20047;-73
2021/11/13 01:32:58;;;;;;;0.00;0.00;;;;;15.90;101058.00;;;;5086858;28;20055;-73
2021/11/13 01:35:27;;;;;;;0.00;0.00;;;;;15.90;101061.00;;;;5087099;28;20533;-73
2021/11/13 01:37:57;;;;;;;1.20;0.15;;;;;15.90;101044.00;;;;5086863;28;20177;-73
2021/11/13 01:40:27;;;;;;;0.15;0.10;;;;;16.00;101059.00;;;;5087585;28;20048;-72
2021/11/13 01:42:58;;;;;;;0.00;0.00;;;;;16.00;101049.00;;;;5087547;28;20444;-71
2021/11/13 01:45:28;;;;;;;0.00;0.00;;;;;16.00;101065.00;;;;5086881;28;20044;-72
2021/11/13 01:47:58;;;;;;;0.20;0.20;;;;;16.00;101068.00;;;;5086839;28;20047;-73
2021/11/13 01:50:39;;;;;;;0.00;0.00;;;;;16.00;101060.00;;;;5086548;28;20036;-73
2021/11/13 01:53:10;;;;;;;0.00;0.00;;;;;15.90;101051.00;;;;5087588;28;20127;-71
2021/11/13 01:55:40;;;;;;;0.00;0.00;;;;;15.90;101050.00;;;;5086963;28;20044;-72
2021/11/13 01:58:13;;;;;;;0.00;0.00;;;;;15.80;101047.00;;;;5087259;28;20123;-71
2021/11/13 02:00:47;;;;;;;0.00;0.00;;;;;15.80;101026.00;;;;5086583;28;20119;-74
2021/11/13 02:03:18;;;;;;;0.00;0.00;;;;;15.90;101032.00;;;;5087233;28;20174;-72
2021/11/13 02:05:48;;;;;;;0.03;0.00;;;;;15.90;101030.00;;;;5068896;28;20062;-73
2021/11/13 02:08:19;;;;;;;0.40;0.20;;;;;15.90;101042.00;;;;5087283;28;20505;-70
2021/11/13 02:10:48;;;;;;;0.00;0.00;;;;;15.90;101055.00;;;;5086764;28;20438;-74
2021/11/13 02:13:18;;;;;;;0.00;0.00;;;;;15.90;101057.00;;;;5086360;28;20101;-75
2021/11/13 02:15:47;;;;;;;0.00;0.00;;;;;15.80;101058.00;;;;5086391;28;20040;-73
2021/11/13 02:18:17;;;;;;;0.00;0.00;;;;;15.70;101051.00;;;;5086902;28;20047;-74
2021/11/13 02:20:47;;;;;;;0.00;0.00;;;;;15.70;101056.00;;;;5086489;28;20059;-72
2021/11/13 02:23:20;;;;;;;0.00;0.00;;;;;15.60;101060.00;;;;5087084;28;20106;-72
2021/11/13 02:25:52;;;;;;;0.00;0.00;;;;;15.50;101061.00;;;;5085935;28;20055;-73
2021/11/13 02:28:25;;;;;;;0.00;0.00;;;;;15.50;101032.00;;;;5086660;28;20040;-75
2021/11/13 02:30:58;;;;;;;2.83;0.80;;;;;15.60;101044.00;;;;5086736;28;20075;-74
2021/11/13 02:33:28;;;;;;;0.00;0.00;;;;;15.70;101042.00;;;;5089779;28;20052;-73
2021/11/13 02:35:58;;;;;;;0.00;0.00;;;;;15.50;101032.00;;;;5090680;28;20052;-72
2021/11/13 02:38:36;;;;;;;0.00;0.00;;;;;15.50;101038.00;;;;5090145;28;20044;-74
2021/11/13 02:41:12;;;;;;;0.00;0.00;;;;;15.40;101053.00;;;;5090325;28;20036;-73
2021/11/13 02:43:42;;;;;;;0.00;0.00;;;;;15.30;101041.00;;;;5090489;28;20549;-73
2021/11/13 02:46:14;;;;;;;0.00;0.00;;;;;15.40;101042.00;;;;5090000;28;20101;-73
2021/11/13 02:48:44;;;;;;;0.00;0.00;;;;;15.40;101046.00;;;;5073365;28;20040;-71
2021/11/13 02:51:14;;;;;;;0.00;0.00;;;;;15.60;101044.00;;;;5072160;28;20050;-74
2021/11/13 02:53:45;;;;;;;0.00;0.00;;;;;15.60;101029.00;;;;5090295;28;20036;-72
2021/11/13 02:56:15;;;;;;;0.00;0.00;;;;;15.50;101011.00;;;;5090009;28;20666;-74
2021/11/13 02:58:45;;;;;;;2.30;0.52;;;;;15.40;101021.00;;;;5089923;28;20044;-73
2021/11/13 03:01:21;;;;;;;0.00;0.00;;;;;15.50;101009.00;;;;5089913;28;20148;-74
2021/11/13 03:03:53;;;;;;;0.00;0.00;;;;;15.50;101018.00;;;;5089932;28;20070;-74
2021/11/13 03:06:24;;;;;;;9.80;0.65;;;;;15.50;101001.00;;;;5090367;28;20040;-73
2021/11/13 03:08:54;;;;;;;0.00;0.00;;;;;15.50;100995.00;;;;5090616;28;20438;-74
2021/11/13 03:11:24;;;;;;;0.00;0.00;;;;;15.50;100996.00;;;;5089606;28;20044;-73
2021/11/13 03:13:53;;;;;;;0.00;0.00;;;;;15.40;100992.00;;;;5090028;28;20495;-72
2021/11/13 03:16:23;;;;;;;0.63;0.43;;;;;15.40;100990.00;;;;5071581;28;20044;-73
2021/11/13 03:18:52;;;;;;;0.00;0.00;;;;;15.40;100959.00;;;;5089776;28;20990;-73
2021/11/13 03:21:22;;;;;;;0.00;0.00;;;;;15.40;100959.00;;;;5089950;28;20437;-73
2021/11/13 03:23:51;;;;;;;0.00;0.00;;;;;15.40;100956.00;;;;5089334;28;20043;-76
2021/11/13 03:26:24;;;;;;;0.00;0.00;;;;;15.50;100973.00;;;;5071416;28;20399;-75
2021/11/13 03:29:11;;;;;;;0.00;0.00;;;;;15.40;100946.00;;;;5089500;28;20075;-73
2021/11/13 03:31:42;;;;;;;0.00;0.00;;;;;15.40;100952.00;;;;5090679;28;20046;-74
2021/11/13 03:34:12;;;;;;;0.00;0.00;;;;;15.30;100947.00;;;;5089311;28;20407;-72
2021/11/13 03:36:41;;;;;;;0.00;0.00;;;;;15.20;100934.00;;;;5089203;28;20056;-73
2021/11/13 03:39:11;;;;;;;0.00;0.00;;;;;15.10;100922.00;;;;5089210;28;20048;-72
2021/11/13 03:41:41;;;;;;;0.00;0.00;;;;;15.20;100949.00;;;;5088989;28;20513;-74
2021/11/13 03:44:10;;;;;;;0.00;0.00;;;;;15.20;100948.00;;;;5088136;28;20098;-71
2021/11/13 03:46:40;;;;;;;0.00;0.00;;;;;15.10;100933.00;;;;5088639;28;20059;-74
2021/11/13 03:49:09;;;;;;;0.00;0.00;;;;;15.00;100943.00;;;;5088534;28;20039;-73
2021/11/13 03:51:38;;;;;;;0.68;0.00;;;;;15.00;100945.00;;;;5088956;28;20051;-73
2021/11/13 03:54:08;;;;;;;0.00;0.00;;;;;15.00;100950.00;;;;5089258;28;20416;-73
2021/11/13 03:56:39;;;;;;;0.00;0.00;;;;;14.80;100931.00;;;;5088998;28;20517;-72
2021/11/13 03:59:08;;;;;;;0.00;0.00;;;;;14.70;100946.00;;;;5089410;28;20054;-73
2021/11/13 04:01:38;;;;;;;0.00;0.00;;;;;14.60;100927.00;;;;5088670;28;20524;-73
2021/11/13 04:04:07;;;;;;;0.00;0.00;;;;;14.50;100945.00;;;;5089008;28;20051;-69
2021/11/13 04:06:37;;;;;;;0.00;0.00;;;;;14.30;100938.00;;;;5088661;28;20056;-73
2021/11/13 04:09:06;;;;;;;0.00;0.00;;;;;14.20;100908.00;;;;5088694;28;20073;-71
2021/11/13 04:11:36;;;;;;;0.00;0.00;;;;;14.10;100938.00;;;;5070817;28;20048;-72
2021/11/13 04:14:05;;;;;;;0.00;0.00;;;;;14.00;100920.00;;;;5088226;28;20047;-72
2021/11/13 04:16:36;;;;;;;0.00;0.00;;;;;14.00;100923.00;;;;5089532;28;20081;-72
2021/11/13 04:19:10;;;;;;;0.00;0.00;;;;;13.90;100933.00;;;;5088983;28;20399;-72
2021/11/13 04:21:40;;;;;;;0.00;0.00;;;;;13.80;100919.00;;;;5089057;28;20147;-74
2021/11/13 04:24:10;;;;;;;0.00;0.00;;;;;13.70;100927.00;;;;5088438;28;20435;-73
2021/11/13 04:26:40;;;;;;;0.00;0.00;;;;;13.60;100924.00;;;;5087621;28;20048;-73
2021/11/13 04:29:09;;;;;;;0.00;0.00;;;;;13.50;100910.00;;;;5088383;28;20474;-74
2021/11/13 04:31:39;;;;;;;0.00;0.00;;;;;13.40;100908.00;;;;5088703;28;20529;-73
2021/11/13 04:34:13;;;;;;;0.00;0.00;;;;;13.40;100916.00;;;;5070157;28;20785;-74
2021/11/13 04:36:46;;;;;;;0.00;0.00;;;;;13.30;100909.00;;;;5087790;28;20470;-74
2021/11/13 04:39:16;;;;;;;0.00;0.00;;;;;13.30;100911.00;;;;5087997;28;20032;-72
2021/11/13 04:41:45;;;;;;;0.00;0.00;;;;;13.30;100893.00;;;;5087957;28;20043;-73
2021/11/13 04:44:16;;;;;;;0.00;0.00;;;;;13.20;100897.00;;;;5088613;28;20044;-73
2021/11/13 04:46:46;;;;;;;0.00;0.00;;;;;13.30;100876.00;;;;5087760;28;20047;-73
2021/11/13 04:49:16;;;;;;;0.00;0.00;;;;;13.40;100897.00;;;;5087772;28;20519;-72
2021/11/13 04:51:45;;;;;;;0.00;0.00;;;;;13.40;100873.00;;;;5088072;28;20048;-73
2021/11/13 04:54:15;;;;;;;0.00;0.00;;;;;13.40;100887.00;;;;5087992;28;20410;-73
2021/11/13 04:56:44;;;;;;;0.00;0.00;;;;;13.30;100894.00;;;;5087064;28;20044;-73
2021/11/13 04:59:14;;;;;;;0.00;0.00;;;;;13.40;100897.00;;;;5087939;28;20052;-74
2021/11/13 05:01:43;;;;;;;0.00;0.00;;;;;13.40;100876.00;;;;5088192;28;20047;-73
2021/11/13 05:04:13;;;;;;;0.00;0.00;;;;;13.40;100869.00;;;;5087987;28;20044;-73
2021/11/13 05:06:42;;;;;;;0.00;0.00;;;;;13.40;100870.00;;;;5068882;28;20051;-72
2021/11/13 05:09:12;;;;;;;0.00;0.00;;;;;13.40;100895.00;;;;5087660;28;20836;-74
2021/11/13 05:11:41;;;;;;;0.00;0.00;;;;;13.30;100878.00;;;;5087292;28;20113;-72
2021/11/13 05:14:11;;;;;;;0.00;0.00;;;;;13.30;100866.00;;;;5087216;28;20086;-72
2021/11/13 05:16:41;;;;;;;;;;;;;13.20;100883.00;;;;5087854;28;20426;-71
2021/11/13 05:19:11;;;;;;;0.00;0.00;;;;;13.20;100853.00;;;;5088102;28;19924;-73
2021/11/13 05:21:41;;;;;;;0.00;0.00;;;;;13.10;100858.00;;;;5086991;28;20406;-73
2021/11/13 05:24:10;;;;;;;0.00;0.00;;;;;13.10;100868.00;;;;5087359;28;20048;-73
2021/11/13 05:26:40;;;;;;;0.00;0.00;;;;;13.10;100876.00;;;;5086996;28;20046;-73
2021/11/13 05:29:09;;;;;;;0.00;0.00;;;;;13.00;100847.00;;;;5087301;28;20036;-74
2021/11/13 05:31:39;;;;;;;0.00;0.00;;;;;13.00;100873.00;;;;5087898;28;20431;-73
2021/11/13 05:34:09;;;;;;;0.00;0.00;;;;;13.00;100850.00;;;;5087062;28;20865;-72
2021/11/13 05:36:40;;;;;;;0.00;0.00;;;;;13.00;100832.00;;;;5086941;28;20136;-74
2021/11/13 05:39:09;;;;;;;0.00;0.00;;;;;13.00;100849.00;;;;5087259;28;20051;-74
2021/11/13 05:41:39;;;;;;;0.00;0.00;;;;;13.10;100859.00;;;;5087014;28;20044;-72
2021/11/13 05:44:08;;;;;;;0.00;0.00;;;;;13.00;100833.00;;;;5086726;28;20047;-73
2021/11/13 05:46:39;;;;;;;0.00;0.00;;;;;13.00;100862.00;;;;5086768;28;20067;-75
2021/11/13 05:49:08;;;;;;;0.00;0.00;;;;;13.10;100837.00;;;;5086684;28;20048;-72
2021/11/13 05:51:39;;;;;;;0.00;0.00;;;;;13.10;100820.00;;;;5087428;28;20048;-74
2021/11/13 05:54:09;;;;;;;0.00;0.00;;;;;13.10;100834.00;;;;5087388;28;20848;-72
2021/11/13 05:56:38;;;;;;;0.00;0.00;;;;;13.00;100839.00;;;;5087101;28;20040;-74
2021/11/13 05:59:07;;;;;;;0.15;0.10;;;;;13.00;100834.00;;;;5086800;28;20415;-72
2021/11/13 06:01:41;;;;;;;0.00;0.00;;;;;12.90;100838.00;;;;5086483;28;20132;-73
2021/11/13 06:04:11;;;;;;;0.00;0.00;;;;;13.00;100821.00;;;;5086883;28;20044;-73
2021/11/13 06:07:00;;;;;;;0.00;0.00;;;;;13.00;100818.00;;;;5086975;28;20127;-73
2021/11/13 06:09:30;;;;;;;0.00;0.00;;;;;13.10;100813.00;;;;5073363;28;20051;-74
2021/11/13 06:12:02;;;;;;;0.00;0.00;;;;;13.00;100826.00;;;;5091075;28;20044;-71
2021/11/13 06:14:31;;;;;;;0.00;0.00;;;;;12.90;100812.00;;;;5090945;28;20040;-72
2021/11/13 06:17:01;;;;;;;0.00;0.00;;;;;12.90;100810.00;;;;5090919;28;20123;-72
2021/11/13 06:19:30;;;;;;;0.00;0.00;;;;;12.90;100813.00;;;;5091452;28;20060;-74
2021/11/13 06:22:00;;;;;;;0.00;0.00;;;;;12.90;100827.00;;;;5090651;28;20044;-74
2021/11/13 06:24:31;;;;;;;0.00;0.00;;;;;12.90;100832.00;;;;5090753;28;20050;-74
2021/11/13 06:27:02;;;;;;;0.00;0.00;;;;;12.90;100813.00;;;;5089894;28;20168;-73
2021/11/13 06:29:32;;;;;;;0.00;0.00;;;;;12.90;100824.00;;;;5090306;28;20487;-72
2021/11/13 06:32:02;;;;;;;0.00;0.00;;;;;12.80;100822.00;;;;5090438;28;20044;-74
2021/11/13 06:34:31;;;;;;;0.00;0.00;;;;;12.80;100822.00;;;;5090668;28;20044;-72
2021/11/13 06:37:01;;;;;;;0.00;0.00;;;;;12.80;100807.00;;;;5090290;28;20101;-74
2021/11/13 06:39:31;;;;;;;0.00;0.00;;;;;12.80;100829.00;;;;5090021;28;20043;-72
2021/11/13 06:42:04;;;;;;;0.00;0.00;;;;;12.80;100818.00;;;;5090573;28;20040;-71
2021/11/13 06:44:34;;;;;;;0.00;0.00;;;;;12.80;100827.00;;;;5090592;28;20040;-73
2021/11/13 06:47:04;;;;;;;0.00;0.00;;;;;12.70;100818.00;;;;5090251;28;20056;-72
2021/11/13 06:49:33;;;;;;;0.00;0.00;;;;;12.80;100799.00;;;;5090175;28;20037;-73
2021/11/13 06:52:06;;;;;;;0.00;0.00;;;;;12.70;100832.00;;;;5090294;28;20403;-74
2021/11/13 06:54:37;;;;;;;0.00;0.00;;;;;12.60;100822.00;;;;5089929;28;20048;-73
2021/11/13 06:57:07;;;;;;;0.00;0.00;;;;;12.60;100797.00;;;;5090526;28;20518;-72
2021/11/13 06:59:36;;;;;;;0.00;0.00;;;;;12.60;100823.00;;;;5090161;28;20040;-72
2021/11/13 07:02:06;;;;;;;0.00;0.00;;;;;12.50;100808.00;;;;5089830;28;20040;-73
2021/11/13 07:04:36;;;;;;;0.00;0.00;;;;;12.50;100826.00;;;;5090261;28;20040;-73
2021/11/13 07:07:07;;;;;;;0.00;0.00;;;;;12.50;100804.00;;;;5090137;28;20154;-72
2021/11/13 07:09:37;;;;;;;0.00;0.00;;;;;12.50;100820.00;;;;5089811;28;20048;-74
2021/11/13 07:12:07;;;;;;;0.00;0.00;;;;;12.40;100827.00;;;;5089651;28;20040;-72
2021/11/13 07:14:37;;;;;;;0.00;0.00;;;;;12.40;100823.00;;;;5089837;28;20044;-74
2021/11/13 07:17:07;;;;;;;0.00;0.00;;;;;12.40;100809.00;;;;5090137;28;20092;-74
2021/11/13 07:19:37;;;;;;;0.00;0.00;;;;;12.40;100805.00;;;;5089211;28;20051;-72
2021/11/13 07:22:06;;;;;;;0.00;0.00;;;;;12.40;100819.00;;;;5089829;28;20519;-73
2021/11/13 07:24:35;;;;;;;0.00;0.00;;;;;12.40;100807.00;;;;5089824;28;20605;-73
2021/11/13 07:27:05;;;;;;;0.00;0.00;;;;;12.40;100839.00;;;;5071759;28;20048;-73
2021/11/13 07:29:44;;;;;;;0.00;0.00;;;;;12.40;100828.00;;;;5089847;28;20036;-71
2021/11/13 07:32:15;;;;;;;0.00;0.00;;;;;12.30;100826.00;;;;5088935;28;20051;-72
2021/11/13 07:34:45;;;;;;;0.00;0.00;;;;;12.30;100834.00;;;;5088986;28;20048;-73
2021/11/13 07:37:18;;;;;;;0.00;0.00;;;;;12.30;100848.00;;;;5089154;28;20059;-73
2021/11/13 07:39:48;;;;;;;0.10;0.05;;;;;12.20;100829.00;;;;5089822;28;20485;-73
2021/11/13 07:42:17;;;;;;;0.00;0.00;;;;;12.20;100844.00;;;;5089687;28;20063;-72
2021/11/13 07:44:47;;;;;;;0.00;0.00;;;;;12.20;100848.00;;;;5089285;28;20115;-71
2021/11/13 07:47:17;;;;;;;0.00;0.00;;;;;12.10;100847.00;;;;5089523;28;20044;-71
2021/11/13 07:49:47;;;;;;;0.00;0.00;;;;;12.10;100828.00;;;;5088895;28;20051;-73
2021/11/13 07:52:16;;;;;;;0.00;0.00;;;;;12.10;100843.00;;;;5088851;28;20451;-74
2021/11/13 07:54:45;;;;;;;0.10;0.10;;;;;12.10;100833.00;;;;5089118;28;20048;-72
2021/11/13 07:57:15;;;;;;;0.00;0.00;;;;;12.00;100853.00;;;;5088924;28;20043;-72
2021/11/13 07:59:44;;;;;;;0.00;0.00;;;;;12.00;100859.00;;;;5088226;28;20515;-72
2021/11/13 08:02:13;;;;;;;0.00;0.00;;;;;12.00;100861.00;;;;5088998;28;20096;-73
2021/11/13 08:04:43;;;;;;;0.00;0.00;;;;;12.10;100853.00;;;;5070793;28;20134;-73
2021/11/13 08:07:13;;;;;;;0.00;0.00;;;;;12.10;100844.00;;;;5088614;28;20048;-73
2021/11/13 08:09:42;;;;;;;0.00;0.00;;;;;12.00;100856.00;;;;5070777;28;20435;-72
2021/11/13 08:12:12;;;;;;;0.00;0.00;;;;;12.10;100865.00;;;;5087928;28;20578;-73
2021/11/13 08:14:41;;;;;;;0.00;0.00;;;;;12.10;100863.00;;;;5088527;28;20047;-73
2021/11/13 08:17:12;;;;;;;0.00;0.00;;;;;12.10;100845.00;;;;5088712;28;20577;-73
2021/11/13 08:19:41;;;;;;;0.00;0.00;;;;;12.10;100862.00;;;;5087851;28;20067;-73
2021/11/13 08:22:11;;;;;;;0.00;0.00;;;;;12.10;100851.00;;;;5087922;28;20070;-73
2021/11/13 08:24:40;;;;;;;0.00;0.00;;;;;12.10;100865.00;;;;5088544;28;20108;-72
2021/11/13 08:27:12;;;;;;;0.00;0.00;;;;;12.10;100864.00;;;;5088070;28;20044;-74
2021/11/13 08:29:42;;;;;;;0.00;0.00;;;;;12.20;100866.00;;;;5088457;28;20043;-73
2021/11/13 08:32:14;;;;;;;0.00;0.00;;;;;12.20;100873.00;;;;5087854;28;20051;-72
2021/11/13 08:34:44;;;;;;;0.00;0.00;;;;;12.20;100862.00;;;;5069480;28;20570;-73
2021/11/13 08:37:14;;;;;;;0.00;0.00;;;;;12.20;100861.00;;;;5088169;28;20048;-74
2021/11/13 08:39:44;;;;;;;0.00;0.00;;;;;12.30;100871.00;;;;5087850;28;20040;-73
2021/11/13 08:42:14;;;;;;;;;;;;;12.30;100878.00;;;;5088612;28;20080;-72
2021/11/13 08:44:46;;;;;;;0.00;0.00;;;;;12.40;100893.00;;;;5088231;28;20539;-74
2021/11/13 08:47:20;;;;;;;0.00;0.00;;;;;12.40;100891.00;;;;5069557;28;20510;-72
2021/11/13 08:49:50;;;;;;;0.00;0.00;;;;;12.50;100874.00;;;;5069857;28;20083;-72
2021/11/13 08:52:20;;;;;;;0.00;0.00;;;;;12.50;100886.00;;;;5087252;28;20051;-74
2021/11/13 08:54:51;;;;;;;;;;;;;12.60;100905.00;;;;5088522;28;20048;-73
2021/11/13 08:57:20;;;;;;;0.00;0.00;;;;;12.60;100884.00;;;;5087695;28;20279;-73
2021/11/13 08:59:49;;;;;;;0.00;0.00;;;;;12.60;100915.00;;;;5087851;28;20059;-73
2021/11/13 09:02:25;;;;;;;0.00;0.00;;;;;12.70;100890.00;;;;5088039;28;20050;-74
2021/11/13 09:04:56;;;;;;;0.00;0.00;;;;;12.80;100888.00;;;;5087986;28;20089;-73
2021/11/13 09:07:27;;;;;;;0.00;0.00;;;;;12.90;100897.00;;;;5086823;28;20506;-73
2021/11/13 09:09:56;;;;;;;0.00;0.00;;;;;12.90;100918.00;;;;5085303;28;20044;-73
2021/11/13 09:12:28;;;;;;;0.00;0.00;;;;;13.00;100902.00;;;;5085916;28;20454;-72
2021/11/13 09:15:25;;;;;;;0.00;0.00;;;;;13.20;100913.00;;;;5087382;28;20044;-71
2021/11/13 09:17:55;;;;;;;0.00;0.00;;;;;13.30;100923.00;;;;5087446;28;20043;-73
2021/11/13 09:20:26;;;;;;;0.00;0.00;;;;;13.30;100900.00;;;;5087492;28;20047;-73
2021/11/13 09:22:56;;;;;;;;;;;;;13.40;100929.00;;;;5087333;28;20667;-73
2021/11/13 09:25:26;;;;;;;0.00;0.00;;;;;13.60;100919.00;;;;5069777;28;19931;-74
2021/11/13 09:27:58;;;;;;;0.00;0.00;;;;;13.80;100925.00;;;;5086604;28;20040;-72
2021/11/13 09:30:31;;;;;;;0.00;0.00;;;;;14.00;100927.00;;;;5087013;28;20051;-72
2021/11/13 09:33:01;;;;;;;0.00;0.00;;;;;14.20;100901.00;;;;5087781;28;20048;-73
2021/11/13 09:35:31;;;;;;;0.60;0.38;;;;;14.60;100906.00;;;;5087074;28;20066;-73
2021/11/13 09:38:27;;;;;;;0.00;0.00;;;;;14.80;100896.00;;;;5087496;28;20520;-72
2021/11/13 09:40:59;;;;;;;0.00;0.00;;;;;15.00;100915.00;;;;5086497;28;20097;-72
2021/11/13 09:43:30;;;;;;;5.57;1.65;;;;;15.30;100911.00;;;;5086226;28;20059;-71
2021/11/13 09:46:04;;;;;;;0.00;0.00;;;;;15.60;100910.00;;;;5087200;28;20541;-73
2021/11/13 09:48:35;;;;;;;0.00;0.00;;;;;16.10;100922.00;;;;5087018;28;20040;-74
2021/11/13 09:51:07;;;;;;;0.00;0.00;;;;;16.10;100927.00;;;;5086856;28;20043;-73
2021/11/13 09:53:37;;;;;;;0.00;0.00;;;;;16.30;100920.00;;;;5086661;28;20050;-74
2021/11/13 09:56:10;;;;;;;0.00;0.00;;;;;16.50;100928.00;;;;5087047;28;20036;-73
2021/11/13 09:58:40;;;;;;;0.00;0.00;;;;;16.60;100946.00;;;;5087346;28;20048;-74
2021/11/13 10:01:11;;;;;;;0.00;0.00;;;;;17.00;100935.00;;;;5087622;28;20040;-74
2021/11/13 10:03:43;;;;;;;0.00;0.00;;;;;17.20;100914.00;;;;5086356;28;20090;-73
2021/11/13 10:06:13;;;;;;;;;;;;;17.80;100916.00;;;;5087531;28;20521;-71
2021/11/13 10:08:45;;;;;;;0.10;0.10;;;;;21.90;100716.00;;;;5086894;28;19924;-73
2021/11/13 10:11:23;;;;;;;0.00;0.00;;;;;26.60;100679.00;;;;5087045;28;20040;-75
2021/11/13 10:13:55;;;;;;;0.00;0.00;;;;;29.00;100653.00;;;;5086520;28;20475;-74
2021/11/13 10:16:36;;;;;;;0.00;0.00;;;;;30.10;100659.00;;;;5086317;28;20040;-73
2021/11/13 10:19:15;;;;;;;0.00;0.00;;;;;30.20;100661.00;;;;5087094;28;20047;-71
2021/11/13 10:21:48;;;;;;;0.00;0.00;;;;;30.30;100643.00;;;;5086660;28;20051;-73
2021/11/13 10:24:21;;;;;;;0.25;0.20;;;;;31.20;100658.00;;;;5068263;28;20040;-73
2021/11/13 10:26:54;;;;;;;0.75;0.68;;;;;30.80;100651.00;;;;5086363;28;20044;-73
2021/11/13 10:29:33;;;;;;;0.03;0.00;;;;;30.70;100660.00;;;;5086471;28;20047;-72
2021/11/13 10:32:08;;;;;;;0.10;0.10;;;;;30.80;100677.00;;;;5087315;28;20121;-73
2021/11/13 10:34:48;;;;;;;2.78;0.15;;;;;28.50;100775.00;;;;5087153;28;20036;-71
2021/11/13 10:37:24;;;;;;;0.00;0.00;;;;;26.80;100825.00;;;;5086386;28;20468;-73
2021/11/13 10:39:58;;;;;;;0.00;0.00;;;;;23.70;100832.00;;;;5086660;28;20132;-72
2021/11/13 10:42:29;;;;;;;0.00;0.00;;;;;26.50;100737.00;;;;5086331;28;20511;-74
2021/11/13 10:45:00;;;;;;;0.00;0.00;;;;;30.40;100718.00;;;;5086160;28;20415;-72
2021/11/13 10:47:36;;;;;;;0.00;0.00;;;;;31.70;100698.00;;;;5086198;28;20075;-74
2021/11/13 10:50:18;;;;;;;0.15;0.10;;;;;31.30;100670.00;;;;5086550;28;20036;-73
2021/11/13 10:53:12;;;;;;;0.45;0.25;;;;;32.10;100678.00;;;;5086663;28;20039;-71
2021/11/13 10:56:00;;;;;;;0.00;0.00;;;;;32.40;100670.00;;;;5089841;28;20036;-71
2021/11/13 10:58:36;;;;;;;0.00;0.00;;;;;32.00;100673.00;;;;5089739;28;20533;-72
2021/11/13 11:01:24;;;;;;;0.00;0.00;;;;;32.10;100692.00;;;;5090199;28;20048;-73
2021/11/13 11:04:17;;;;;;;0.00;0.00;;;;;32.80;100687.00;;;;5089766;28;20048;-72
2021/11/13 11:06:51;;;;;;;0.00;0.00;;;;;31.80;100686.00;;;;5089398;28;20114;-73
2021/11/13 11:09:48;;;;;;;0.00;0.00;;;;;30.80;100684.00;;;;5071725;28;20052;-72
2021/11/13 11:12:21;;;;;;;0.40;0.40;;;;;31.60;100691.00;;;;5081940;28;20044;-73
2021/11/13 11:14:54;;;;;;;0.00;0.00;;;;;31.30;100708.00;;;;5089584;28;20051;-73
2021/11/13 11:17:29;;;;;;;1.08;0.52;;;;;30.40;100699.00;;;;5089286;28;20119;-72
2021/11/13 11:20:14;;;;;;;0.00;0.00;;;;;30.30;100694.00;;;;5089619;28;20040;-72
2021/11/13 11:22:45;;;;;;;0.00;0.00;;;;;30.40;100686.00;;;;5089645;28;20403;-72
2021/11/13 11:25:16;;;;;;;0.10;0.10;;;;;30.20;100672.00;;;;5089588;28;20055;-73
2021/11/13 11:27:49;;;;;;;0.20;0.20;;;;;30.00;100669.00;;;;5088387;28;20541;-73
2021/11/13 11:30:23;;;;;;;0.20;0.10;;;;;28.40;100683.00;;;;5071115;28;20097;-72
2021/11/13 11:32:55;;;;;;;0.32;0.32;;;;;28.50;100687.00;;;;5089346;28;20115;-73
2021/11/13 11:35:39;;;;;;;0.00;0.00;;;;;28.00;100708.00;;;;5089745;28;20052;-73
2021/11/13 11:38:12;;;;;;;0.52;0.05;;;;;27.80;100803.00;;;;5089845;28;20128;-73
2021/11/13 11:40:47;;;;;;;0.00;0.00;;;;;26.90;100853.00;;;;5088990;28;20067;-74
2021/11/13 11:43:18;;;;;;;0.47;0.28;;;;;26.90;100859.00;;;;5089088;28;20388;-73
2021/11/13 11:45:47;;;;;;;0.10;0.10;;;;;26.50;100848.00;;;;5088732;28;20078;-73
2021/11/13 11:48:18;;;;;;;0.10;0.10;;;;;26.50;100864.00;;;;5088669;28;20526;-73
2021/11/13 11:50:49;;;;;;;0.00;0.00;;;;;26.50;100859.00;;;;5089013;28;20445;-72
2021/11/13 11:53:18;;;;;;;;;;;;;26.00;100857.00;;;;5089624;28;20537;-74
2021/11/13 11:55:49;;;;;;;0.00;0.00;;;;;26.10;100837.00;;;;5089410;28;19931;-73
2021/11/13 11:58:22;;;;;;;0.03;0.03;;;;;25.70;100853.00;;;;5088749;28;20503;-72
2021/11/13 12:00:55;;;;;;;0.00;0.00;;;;;25.80;100844.00;;;;5089085;28;20047;-74
2021/11/13 12:03:29;;;;;;;0.30;0.20;;;;;25.90;100844.00;;;;5070383;28;20052;-73
2021/11/13 12:05:59;;;;;;;0.20;0.10;;;;;26.50;100851.00;;;;5088131;28;20071;-73
2021/11/13 12:08:29;;;;;;;0.00;0.00;;;;;26.50;100836.00;;;;5088475;28;20048;-72
2021/11/13 12:11:20;;;;;;;0.20;0.10;;;;;26.00;100850.00;;;;5089008;28;20047;-73
2021/11/13 12:13:50;;;;;;;0.40;0.30;;;;;25.70;100835.00;;;;5088979;28;20293;-74
2021/11/13 12:16:26;;;;;;;1.15;0.55;;;;;25.70;100827.00;;;;5088921;28;20056;-72
2021/11/13 12:18:56;;;;;;;0.00;0.00;;;;;26.50;100827.00;;;;5088833;28;20040;-72
2021/11/13 12:21:32;;;;;;;0.10;0.10;;;;;26.00;100808.00;;;;5088628;28;20036;-74
2021/11/13 12:24:07;;;;;;;0.05;0.00;;;;;26.30;100806.00;;;;5089080;28;20040;-73
2021/11/13 12:26:40;;;;;;;1.38;0.55;;;;;27.10;100799.00;;;;5088563;28;20047;-73
2021/11/13 12:29:13;;;;;;;0.00;0.00;;;;;27.30;100808.00;;;;5088204;28;20737;-73
2021/11/13 12:31:52;;;;;;;0.10;0.10;;;;;27.20;100792.00;;;;5088222;28;20036;-73